createdAt,value
2017-04-09T12:10:42.730Z,1013.21
2017-04-09T12:10:55.617Z,1013.22
2017-04-09T12:11:56.189Z,1013.19
2017-04-09T12:12:56.863Z,1013.21
2017-04-09T12:16:17.481Z,1013.13
2017-04-09T12:17:18.255Z,1013.10
2017-04-09T12:18:19.072Z,1013.11
2017-04-09T12:19:19.642Z,1013.11
2017-04-09T12:20:20.297Z,1013.14
2017-04-09T12:21:20.954Z,1013.09
2017-04-09T12:22:21.610Z,1013.08
2017-04-09T12:23:22.275Z,1013.08
2017-04-09T12:24:22.945Z,1013.04
2017-04-09T12:25:23.606Z,1013.07
2017-04-09T12:26:24.264Z,1013.01
2017-04-09T12:27:24.931Z,1013.06
2017-04-09T12:28:25.582Z,1013.03
2017-04-09T12:29:26.288Z,1013.04
2017-04-09T12:30:26.945Z,1013.02
2017-04-09T12:31:27.599Z,1013.02
2017-04-09T12:32:28.258Z,1013.02
2017-04-09T12:33:28.917Z,1013.02
2017-04-09T12:34:29.575Z,1012.98
2017-04-09T12:35:30.229Z,1012.97
2017-04-09T12:36:30.870Z,1012.96
2017-04-09T12:37:31.533Z,1012.94
2017-04-09T12:38:32.191Z,1012.96
2017-04-09T12:39:32.848Z,1012.93
2017-04-09T12:40:33.500Z,1012.88
2017-04-09T12:41:34.174Z,1012.91
2017-04-09T12:42:34.834Z,1012.90
2017-04-09T12:43:35.488Z,1012.88
2017-04-09T12:44:36.148Z,1012.90
2017-04-09T12:45:36.814Z,1012.83
2017-04-09T12:46:37.468Z,1012.80
2017-04-09T12:47:38.121Z,1012.79
2017-04-09T12:48:38.780Z,1012.78
2017-04-09T12:49:39.438Z,1012.80
2017-04-09T12:50:40.098Z,1012.76
2017-04-09T12:51:40.760Z,1012.78
2017-04-09T12:52:41.409Z,1012.76
2017-04-09T12:53:42.076Z,1012.76
2017-04-09T12:54:42.731Z,1012.76
2017-04-09T12:55:43.398Z,1012.76
2017-04-09T12:56:44.053Z,1012.75
2017-04-09T12:57:44.782Z,1012.69
2017-04-09T12:58:45.443Z,1012.70
2017-04-09T12:59:46.101Z,1012.65
2017-04-09T13:00:46.768Z,1012.68
2017-04-09T13:01:47.429Z,1012.66
2017-04-09T13:47:39.960Z,1012.26
2017-04-09T13:48:46.835Z,1012.24
2017-04-09T13:49:57.446Z,1012.24
2017-04-09T13:51:08.135Z,1012.23
2017-04-09T13:52:18.826Z,1012.22
2017-04-09T13:53:29.514Z,1012.21
2017-04-09T13:54:40.210Z,1012.18
2017-04-09T13:55:50.898Z,1012.18
2017-04-09T13:57:01.611Z,1012.16
2017-04-09T13:58:12.293Z,1012.14
2017-04-09T13:59:16.695Z,1012.14
2017-04-09T13:59:57.034Z,1012.13
2017-04-09T14:01:07.736Z,1012.12
2017-04-09T14:02:28.968Z,1012.05
2017-04-09T14:03:39.669Z,1012.04
2017-04-09T14:04:50.481Z,1012.04
2017-04-09T14:06:01.202Z,1012.07
2017-04-09T14:07:11.918Z,1012.03
2017-04-09T14:08:14.767Z,1012.00
2017-04-09T14:09:25.512Z,1023.28
2017-04-09T14:09:41.832Z,1024.84
2017-04-09T14:09:58.637Z,1025.05
2017-04-09T14:10:15.267Z,1012.31
2017-04-09T14:10:31.915Z,1011.98
2017-04-09T14:10:48.607Z,1011.94
2017-04-09T14:11:05.306Z,1011.89
2017-04-09T14:11:20.918Z,1011.95
2017-04-09T14:12:31.614Z,1011.96
2017-04-09T14:13:30.103Z,1011.94
2017-04-09T14:13:49.068Z,1011.94
2017-04-09T14:14:49.851Z,1011.94
2017-04-09T14:15:50.628Z,1011.89
2017-04-09T14:16:53.659Z,1011.88
2017-04-09T14:17:07.459Z,1011.87
2017-04-09T14:18:04.645Z,1011.88
2017-04-09T14:19:15.248Z,1011.94
2017-04-09T14:20:26.003Z,1011.92
2017-04-09T14:21:36.771Z,1011.96
2017-04-09T14:22:47.471Z,1011.96
2017-04-09T14:23:58.176Z,1011.90
2017-04-09T14:25:08.798Z,1011.91
2017-04-09T14:26:19.508Z,1011.88
